Time;durP1;ratioP1;P1;durP2;ratioP2;P2;SDS_P1;SDS_P2;PMS_P1;PMS_P2;Temp;Humidity;BMP_temperature;BMP_pressure;BME280_temperature;BME280_humidity;BME280_pressure;Samples;Min_cycle;Max_cycle;Signal;HPM_P1;HPM_P2
2023/12/04 00:00:18;;;;;;;0.30;0.30;;;;;;;;;;6292514;28;20008;-81
2023/12/04 00:03:19;;;;;;;0.37;0.37;;;;;;;;;;6292437;28;20044;-81
2023/12/04 00:06:19;;;;;;;0.30;0.30;;;;;;;;;;6293120;28;20025;-81
2023/12/04 00:09:19;;;;;;;0.30;0.30;;;;;;;;;;6292712;28;20023;-81
2023/12/04 00:12:20;;;;;;;0.40;0.40;;;;;;;;;;6307340;28;20544;-81
2023/12/04 00:15:21;;;;;;;0.30;0.30;;;;;;;;;;6292250;28;20024;-81
2023/12/04 00:18:22;;;;;;;0.30;0.30;;;;;;;;;;6292843;28;20017;-81
2023/12/04 00:21:22;;;;;;;0.30;0.30;;;;;;;;;;6292265;28;20020;-81
2023/12/04 00:24:22;;;;;;;0.30;0.30;;;;;;;;;;6292529;28;20013;-81
2023/12/04 00:27:26;;;;;;;0.30;0.30;;;;;;;;;;6292190;28;20393;-81
2023/12/04 00:30:26;;;;;;;0.30;0.30;;;;;;;;;;6280287;28;20036;-82
2023/12/04 00:33:27;;;;;;;0.33;0.33;;;;;;;;;;6291221;28;20396;-81
2023/12/04 00:36:27;;;;;;;0.40;0.40;;;;;;;;;;6291911;28;20024;-81
2023/12/04 00:39:27;;;;;;;0.37;0.37;;;;;;;;;;6292174;28;20032;-82
2023/12/04 00:42:27;;;;;;;0.30;0.30;;;;;;;;;;6293069;28;20740;-82
2023/12/04 00:45:27;;;;;;;0.40;0.40;;;;;;;;;;6292602;28;20047;-82
2023/12/04 00:48:28;;;;;;;0.30;0.30;;;;;;;;;;6292330;28;20024;-81
2023/12/04 00:51:28;;;;;;;0.30;0.30;;;;;;;;;;6292110;28;20032;-82
2023/12/04 00:54:28;;;;;;;0.30;0.30;;;;;;;;;;6268144;28;20029;-82
2023/12/04 00:57:29;;;;;;;0.30;0.30;;;;;;;;;;6289542;28;20025;-82
2023/12/04 01:00:29;;;;;;;0.30;0.30;;;;;;;;;;6298570;28;20021;-81
2023/12/04 01:03:32;;;;;;;0.40;0.40;;;;;;;;;;6291008;28;20056;-81
2023/12/04 01:06:33;;;;;;;0.30;0.30;;;;;;;;;;6291755;28;20036;-81
2023/12/04 01:09:36;;;;;;;0.30;0.30;;;;;;;;;;6289004;28;20093;-81
2023/12/04 01:12:36;;;;;;;0.30;0.30;;;;;;;;;;6291836;28;20035;-81
2023/12/04 01:15:36;;;;;;;0.30;0.30;;;;;;;;;;6273264;28;20372;-81
2023/12/04 01:18:37;;;;;;;0.30;0.30;;;;;;;;;;6292214;28;20016;-81
2023/12/04 01:21:37;;;;;;;0.30;0.30;;;;;;;;;;6291244;28;20031;-81
2023/12/04 01:24:37;;;;;;;0.30;0.30;;;;;;;;;;6291600;28;20104;-80
2023/12/04 01:27:37;;;;;;;0.40;0.40;;;;;;;;;;6291224;28;20020;-81
2023/12/04 01:30:38;;;;;;;0.30;0.30;;;;;;;;;;6273632;28;20479;-81
2023/12/04 01:33:38;;;;;;;0.30;0.30;;;;;;;;;;6291621;28;20411;-81
2023/12/04 01:36:41;;;;;;;0.40;0.40;;;;;;;;;;6292149;28;20024;-81
2023/12/04 01:39:42;;;;;;;0.30;0.30;;;;;;;;;;6291431;28;20024;-81
2023/12/04 01:42:42;;;;;;;0.30;0.30;;;;;;;;;;6291447;28;20024;-81
2023/12/04 01:45:42;;;;;;;0.30;0.30;;;;;;;;;;6292118;28;20040;-81
2023/12/04 01:48:44;;;;;;;0.30;0.30;;;;;;;;;;6286421;28;20075;-81
2023/12/04 01:51:45;;;;;;;0.40;0.40;;;;;;;;;;6289510;28;20020;-81
2023/12/04 01:54:45;;;;;;;0.30;0.30;;;;;;;;;;6290756;28;20074;-81
2023/12/04 01:57:45;;;;;;;0.40;0.40;;;;;;;;;;6296181;28;20020;-81
2023/12/04 02:00:46;;;;;;;0.40;0.40;;;;;;;;;;6291809;28;20645;-81
2023/12/04 02:03:46;;;;;;;0.30;0.30;;;;;;;;;;6277805;28;20052;-82
2023/12/04 02:06:46;;;;;;;0.40;0.40;;;;;;;;;;6295820;28;20039;-82
2023/12/04 02:09:46;;;;;;;0.40;0.40;;;;;;;;;;6295364;28;20036;-82
2023/12/04 02:12:47;;;;;;;0.30;0.30;;;;;;;;;;6295775;28;20035;-82
2023/12/04 02:15:49;;;;;;;0.40;0.40;;;;;;;;;;6263640;28;20143;-82
2023/12/04 02:18:49;;;;;;;;;;;;;;;;;;6276254;28;20025;-82
2023/12/04 02:21:49;;;;;;;0.50;0.50;;;;;;;;;;6283430;28;19986;-81
2023/12/04 02:24:49;;;;;;;0.40;0.40;;;;;;;;;;6294421;28;20020;-82
2023/12/04 02:27:50;;;;;;;0.37;0.37;;;;;;;;;;6294847;28;20036;-81
2023/12/04 02:30:51;;;;;;;0.40;0.40;;;;;;;;;;6295642;28;20077;-81
2023/12/04 02:33:56;;;;;;;0.50;0.50;;;;;;;;;;6277135;28;20366;-82
2023/12/04 02:36:57;;;;;;;0.40;0.40;;;;;;;;;;6294987;28;20364;-81
2023/12/04 02:39:57;;;;;;;0.40;0.40;;;;;;;;;;6289001;28;20024;-81
2023/12/04 02:42:58;;;;;;;0.40;0.40;;;;;;;;;;6295320;28;20364;-81
2023/12/04 02:45:58;;;;;;;0.40;0.40;;;;;;;;;;6276781;28;20043;-81
2023/12/04 02:48:58;;;;;;;0.40;0.40;;;;;;;;;;6294246;28;20438;-81
2023/12/04 02:51:58;;;;;;;0.40;0.40;;;;;;;;;;6309339;28;20183;-81
2023/12/04 02:54:58;;;;;;;0.50;0.50;;;;;;;;;;6293451;28;20028;-81
2023/12/04 02:57:58;;;;;;;0.50;0.50;;;;;;;;;;6301650;28;20484;-81
2023/12/04 03:00:59;;;;;;;0.40;0.40;;;;;;;;;;6290731;28;20020;-81
2023/12/04 03:03:59;;;;;;;0.50;0.50;;;;;;;;;;6270613;28;20044;-81
2023/12/04 03:06:59;;;;;;;0.50;0.50;;;;;;;;;;6306809;28;20111;-81
2023/12/04 03:09:59;;;;;;;0.40;0.40;;;;;;;;;;6281245;28;20490;-81
2023/12/04 03:12:59;;;;;;;0.50;0.50;;;;;;;;;;6274357;28;20086;-82
2023/12/04 03:16:00;;;;;;;0.47;0.47;;;;;;;;;;6279548;28;20029;-81
2023/12/04 03:19:00;;;;;;;0.60;0.60;;;;;;;;;;6292721;28;20099;-81
2023/12/04 03:22:01;;;;;;;0.50;0.50;;;;;;;;;;6299963;28;20012;-79
2023/12/04 03:25:01;;;;;;;0.40;0.40;;;;;;;;;;6288197;28;20028;-79
2023/12/04 03:28:01;;;;;;;0.43;0.43;;;;;;;;;;6291324;28;20028;-79
2023/12/04 03:31:02;;;;;;;0.40;0.40;;;;;;;;;;6302869;28;20025;-79
2023/12/04 03:34:02;;;;;;;0.50;0.50;;;;;;;;;;6292727;28;20028;-79
2023/12/04 03:37:02;;;;;;;0.50;0.50;;;;;;;;;;6274459;28;20040;-79
2023/12/04 03:40:03;;;;;;;0.50;0.50;;;;;;;;;;6276863;28;20035;-79
2023/12/04 03:43:03;;;;;;;0.67;0.67;;;;;;;;;;6292691;28;20095;-79
2023/12/04 03:46:03;;;;;;;0.43;0.43;;;;;;;;;;6288613;28;20463;-79
2023/12/04 03:49:05;;;;;;;0.50;0.50;;;;;;;;;;6295769;28;20024;-79
2023/12/04 03:52:05;;;;;;;0.50;0.50;;;;;;;;;;6296006;28;20024;-79
2023/12/04 03:55:05;;;;;;;0.40;0.40;;;;;;;;;;6295728;28;20024;-78
2023/12/04 03:58:05;;;;;;;0.50;0.50;;;;;;;;;;6292253;28;20517;-78
2023/12/04 04:01:06;;;;;;;0.50;0.50;;;;;;;;;;6292079;28;20020;-78
2023/12/04 04:04:06;;;;;;;0.50;0.50;;;;;;;;;;6252648;28;1116041;-78
2023/12/04 04:07:06;;;;;;;0.50;0.50;;;;;;;;;;6292629;28;20119;-78
2023/12/04 04:10:07;;;;;;;0.43;0.43;;;;;;;;;;6292711;28;20079;-78
2023/12/04 04:13:07;;;;;;;0.55;0.55;;;;;;;;;;6293035;28;20066;-78
2023/12/04 04:16:12;;;;;;;0.53;0.53;;;;;;;;;;6292267;28;20024;-78
2023/12/04 04:19:12;;;;;;;0.60;0.60;;;;;;;;;;6292223;28;20016;-78
2023/12/04 04:22:12;;;;;;;0.53;0.53;;;;;;;;;;6292562;28;20525;-78
2023/12/04 04:25:12;;;;;;;0.60;0.60;;;;;;;;;;6292306;28;20032;-78
2023/12/04 04:28:13;;;;;;;0.60;0.60;;;;;;;;;;6292802;28;20024;-78
2023/12/04 04:31:13;;;;;;;0.50;0.50;;;;;;;;;;6292029;28;20545;-78
2023/12/04 04:34:13;;;;;;;0.70;0.70;;;;;;;;;;6274022;28;20016;-78
2023/12/04 04:37:13;;;;;;;0.53;0.53;;;;;;;;;;6292251;28;20020;-78
2023/12/04 04:40:14;;;;;;;0.70;0.70;;;;;;;;;;6292326;28;20032;-78
2023/12/04 04:43:14;;;;;;;0.60;0.60;;;;;;;;;;6273569;28;20020;-82
2023/12/04 04:46:14;;;;;;;0.50;0.50;;;;;;;;;;6291727;28;20009;-82
2023/12/04 04:49:14;;;;;;;0.60;0.60;;;;;;;;;;6290738;28;20187;-82
2023/12/04 04:52:14;;;;;;;0.70;0.70;;;;;;;;;;6291893;28;20031;-82
2023/12/04 04:55:15;;;;;;;0.50;0.50;;;;;;;;;;6291606;28;20009;-82
2023/12/04 04:58:17;;;;;;;0.70;0.70;;;;;;;;;;6292253;28;20429;-82
2023/12/04 05:01:18;;;;;;;0.50;0.50;;;;;;;;;;6286113;28;20439;-82
2023/12/04 05:04:18;;;;;;;0.57;0.57;;;;;;;;;;6292700;28;20076;-82
2023/12/04 05:07:18;;;;;;;0.60;0.60;;;;;;;;;;6291499;28;20037;-81
2023/12/04 05:10:18;;;;;;;0.53;0.53;;;;;;;;;;6291530;28;20554;-81
2023/12/04 05:13:18;;;;;;;0.50;0.50;;;;;;;;;;6292017;28;20035;-81
2023/12/04 05:16:19;;;;;;;0.65;0.65;;;;;;;;;;6291574;28;20016;-81
2023/12/04 05:19:19;;;;;;;0.60;0.60;;;;;;;;;;6296882;28;20044;-81
2023/12/04 05:22:19;;;;;;;0.60;0.60;;;;;;;;;;6286060;28;20090;-81
2023/12/04 05:25:20;;;;;;;0.57;0.57;;;;;;;;;;6291599;28;20020;-82
2023/12/04 05:28:20;;;;;;;0.67;0.67;;;;;;;;;;6291710;28;20020;-82
2023/12/04 05:31:20;;;;;;;0.50;0.50;;;;;;;;;;6284820;28;20533;-82
2023/12/04 05:34:20;;;;;;;0.60;0.60;;;;;;;;;;6301696;28;20012;-82
2023/12/04 05:37:20;;;;;;;0.60;0.60;;;;;;;;;;6318229;28;20103;-82
2023/12/04 05:40:21;;;;;;;0.70;0.70;;;;;;;;;;6286983;28;20476;-82
2023/12/04 05:43:21;;;;;;;0.50;0.50;;;;;;;;;;6294481;28;20040;-82
2023/12/04 05:46:21;;;;;;;0.63;0.63;;;;;;;;;;6297265;28;20091;-82
2023/12/04 05:49:21;;;;;;;0.50;0.50;;;;;;;;;;6304090;28;20032;-82
2023/12/04 05:52:22;;;;;;;0.60;0.60;;;;;;;;;;6304776;28;20035;-82
2023/12/04 05:55:22;;;;;;;0.50;0.50;;;;;;;;;;6299634;28;20015;-82
2023/12/04 05:58:22;;;;;;;0.60;0.60;;;;;;;;;;6303961;28;20017;-82
2023/12/04 06:01:22;;;;;;;0.60;0.60;;;;;;;;;;6301156;28;20008;-80
2023/12/04 06:04:22;;;;;;;0.60;0.60;;;;;;;;;;6293357;28;20053;-75
2023/12/04 06:07:23;;;;;;;0.50;0.50;;;;;;;;;;6295732;28;20044;-75
2023/12/04 06:10:23;;;;;;;0.63;0.63;;;;;;;;;;6301983;28;20025;-75
2023/12/04 06:13:23;;;;;;;0.50;0.50;;;;;;;;;;6295115;28;20107;-80
2023/12/04 06:16:23;;;;;;;0.70;0.70;;;;;;;;;;6289380;28;20531;-80
2023/12/04 06:19:24;;;;;;;0.60;0.60;;;;;;;;;;6275154;28;20024;-80
2023/12/04 06:22:24;;;;;;;0.60;0.60;;;;;;;;;;6288081;28;20032;-80
2023/12/04 06:25:24;;;;;;;0.50;0.50;;;;;;;;;;6293230;28;20135;-80
2023/12/04 06:28:25;;;;;;;0.60;0.60;;;;;;;;;;6287791;28;20107;-80
2023/12/04 06:31:25;;;;;;;0.57;0.57;;;;;;;;;;6306253;28;20100;-81
2023/12/04 06:34:25;;;;;;;0.50;0.50;;;;;;;;;;6294919;28;20079;-80
2023/12/04 06:37:26;;;;;;;0.73;0.73;;;;;;;;;;6294884;28;20024;-81
2023/12/04 06:40:26;;;;;;;0.60;0.60;;;;;;;;;;6294662;28;20013;-81
2023/12/04 06:43:27;;;;;;;0.60;0.60;;;;;;;;;;6294665;28;20027;-81
2023/12/04 06:46:30;;;;;;;0.60;0.60;;;;;;;;;;6295445;28;20027;-81
2023/12/04 06:49:31;;;;;;;0.60;0.60;;;;;;;;;;6295155;28;20023;-81
2023/12/04 06:52:31;;;;;;;0.60;0.60;;;;;;;;;;6294335;28;20086;-81
2023/12/04 06:55:31;;;;;;;0.70;0.70;;;;;;;;;;6294943;28;20024;-83
2023/12/04 06:58:32;;;;;;;0.53;0.53;;;;;;;;;;6294866;28;20104;-83
2023/12/04 07:01:32;;;;;;;0.60;0.60;;;;;;;;;;6275366;28;20017;-83
2023/12/04 07:04:32;;;;;;;0.70;0.70;;;;;;;;;;6282438;28;20140;-83
2023/12/04 07:07:32;;;;;;;0.50;0.50;;;;;;;;;;6290733;28;20029;-83
2023/12/04 07:10:33;;;;;;;0.63;0.63;;;;;;;;;;6276025;28;20498;-83
2023/12/04 07:13:33;;;;;;;0.53;0.53;;;;;;;;;;6279098;28;20028;-83
2023/12/04 07:16:40;;;;;;;0.50;0.50;;;;;;;;;;6281458;28;20008;-83
2023/12/04 07:19:41;;;;;;;0.55;0.55;;;;;;;;;;6301449;28;20112;-81
2023/12/04 07:22:41;;;;;;;0.60;0.60;;;;;;;;;;6294712;28;20025;-81
2023/12/04 07:25:42;;;;;;;0.50;0.50;;;;;;;;;;6307317;28;20273;-81
2023/12/04 07:28:42;;;;;;;0.50;0.50;;;;;;;;;;6294482;28;20040;-81
2023/12/04 07:31:42;;;;;;;0.40;0.40;;;;;;;;;;6293806;28;20407;-82
2023/12/04 07:34:42;;;;;;;0.40;0.40;;;;;;;;;;6293601;28;20024;-82
2023/12/04 07:37:42;;;;;;;0.40;0.40;;;;;;;;;;6294312;28;20505;-83
2023/12/04 07:40:43;;;;;;;0.40;0.40;;;;;;;;;;6274890;28;20025;-83
2023/12/04 07:43:43;;;;;;;0.30;0.30;;;;;;;;;;6296676;28;20034;-83
2023/12/04 07:46:43;;;;;;;0.40;0.40;;;;;;;;;;6294103;28;20474;-83
2023/12/04 07:49:44;;;;;;;0.30;0.30;;;;;;;;;;6283595;28;20077;-84
2023/12/04 07:52:45;;;;;;;0.30;0.30;;;;;;;;;;6293165;28;20439;-83
2023/12/04 07:55:46;;;;;;;0.40;0.40;;;;;;;;;;6295130;28;20100;-84
2023/12/04 07:58:46;;;;;;;;;;;;;;;;;;6302959;28;20056;-84
2023/12/04 08:01:47;;;;;;;0.30;0.30;;;;;;;;;;6295407;28;20369;-83
2023/12/04 08:04:47;;;;;;;0.30;0.30;;;;;;;;;;6295877;28;20052;-82
2023/12/04 08:07:47;;;;;;;0.40;0.40;;;;;;;;;;6292859;28;20047;-83
2023/12/04 08:10:48;;;;;;;0.40;0.40;;;;;;;;;;6274745;28;20544;-83
2023/12/04 08:13:48;;;;;;;0.30;0.30;;;;;;;;;;6293499;28;20012;-83
2023/12/04 08:16:48;;;;;;;0.30;0.30;;;;;;;;;;6293063;28;20013;-82
2023/12/04 08:19:48;;;;;;;0.30;0.30;;;;;;;;;;6292804;28;20517;-81
2023/12/04 08:22:49;;;;;;;0.40;0.40;;;;;;;;;;6292685;28;20383;-72
2023/12/04 08:25:49;;;;;;;0.30;0.30;;;;;;;;;;6292601;28;20009;-72
2023/12/04 08:28:50;;;;;;;0.40;0.40;;;;;;;;;;6300395;28;20099;-72
2023/12/04 08:31:51;;;;;;;0.30;0.30;;;;;;;;;;6291660;28;20399;-72
2023/12/04 08:34:51;;;;;;;0.30;0.30;;;;;;;;;;6292621;28;20044;-72
2023/12/04 08:37:52;;;;;;;0.30;0.30;;;;;;;;;;6292283;28;20091;-72
2023/12/04 08:40:53;;;;;;;0.30;0.30;;;;;;;;;;6292089;28;20474;-71
2023/12/04 08:43:54;;;;;;;0.30;0.30;;;;;;;;;;6292633;28;20387;-71
2023/12/04 08:46:57;;;;;;;0.30;0.30;;;;;;;;;;6285800;28;20546;-70
2023/12/04 08:49:57;;;;;;;0.20;0.20;;;;;;;;;;6292288;28;20013;-70
2023/12/04 08:52:57;;;;;;;0.30;0.30;;;;;;;;;;6292101;28;20023;-70
2023/12/04 08:55:58;;;;;;;0.20;0.20;;;;;;;;;;6297624;28;20489;-71
2023/12/04 08:58:58;;;;;;;0.30;0.30;;;;;;;;;;6299277;28;20040;-71
2023/12/04 09:01:58;;;;;;;0.20;0.20;;;;;;;;;;6291995;28;20056;-70
2023/12/04 09:04:58;;;;;;;0.30;0.30;;;;;;;;;;6297124;28;20056;-71
2023/12/04 09:08:00;;;;;;;0.20;0.20;;;;;;;;;;6292531;28;20070;-72
2023/12/04 09:11:00;;;;;;;0.20;0.20;;;;;;;;;;6283231;28;20537;-72
2023/12/04 09:14:00;;;;;;;0.20;0.20;;;;;;;;;;6284211;28;20024;-71
2023/12/04 09:17:00;;;;;;;0.20;0.20;;;;;;;;;;6289783;28;20020;-72
2023/12/04 09:20:00;;;;;;;0.20;0.20;;;;;;;;;;6279777;28;20038;-71
2023/12/04 09:23:01;;;;;;;0.20;0.20;;;;;;;;;;6289482;28;20033;-71
2023/12/04 09:26:01;;;;;;;0.20;0.20;;;;;;;;;;6289854;28;20264;-72
2023/12/04 09:29:02;;;;;;;0.20;0.20;;;;;;;;;;6293770;28;20028;-72
2023/12/04 09:32:02;;;;;;;0.20;0.20;;;;;;;;;;6288883;28;20112;-72
2023/12/04 09:35:03;;;;;;;0.20;0.20;;;;;;;;;;6294005;28;20378;-72
2023/12/04 09:38:03;;;;;;;0.20;0.20;;;;;;;;;;6300062;28;20394;-72
2023/12/04 09:41:06;;;;;;;0.20;0.20;;;;;;;;;;6303846;28;20020;-72
2023/12/04 09:44:07;;;;;;;0.20;0.20;;;;;;;;;;6275231;28;20037;-80
2023/12/04 09:47:07;;;;;;;0.20;0.20;;;;;;;;;;6292165;28;20063;-80
2023/12/04 09:50:08;;;;;;;0.20;0.20;;;;;;;;;;6301467;28;20016;-79
2023/12/04 09:53:10;;;;;;;0.20;0.20;;;;;;;;;;6296501;28;20471;-71
2023/12/04 09:56:10;;;;;;;;;;;;;;;;;;6298132;28;20020;-71
2023/12/04 09:59:13;;;;;;;0.20;0.20;;;;;;;;;;6304601;28;20429;-70
2023/12/04 10:02:13;;;;;;;0.20;0.20;;;;;;;;;;6306160;28;20027;-70
2023/12/04 10:05:13;;;;;;;0.20;0.20;;;;;;;;;;6291367;28;20056;-70
2023/12/04 10:08:13;;;;;;;0.20;0.20;;;;;;;;;;6288524;28;20024;-70
2023/12/04 10:11:14;;;;;;;0.20;0.20;;;;;;;;;;6299006;28;20021;-70
2023/12/04 10:14:16;;;;;;;0.20;0.20;;;;;;;;;;6296011;28;20024;-71
2023/12/04 10:17:17;;;;;;;0.20;0.20;;;;;;;;;;6294394;28;20016;-72
2023/12/04 10:20:18;;;;;;;0.20;0.20;;;;;;;;;;6292242;28;20024;-71
2023/12/04 10:23:18;;;;;;;0.20;0.20;;;;;;;;;;6296499;28;20024;-71
2023/12/04 10:26:18;;;;;;;0.20;0.20;;;;;;;;;;6286625;28;20107;-71
2023/12/04 10:29:19;;;;;;;0.20;0.20;;;;;;;;;;6294070;28;20032;-71
2023/12/04 10:32:22;;;;;;;0.20;0.20;;;;;;;;;;6291048;28;20028;-71
2023/12/04 10:35:22;;;;;;;0.20;0.20;;;;;;;;;;6307368;28;20548;-71
2023/12/04 10:38:23;;;;;;;0.20;0.20;;;;;;;;;;6306511;28;20024;-70
2023/12/04 10:41:23;;;;;;;0.20;0.20;;;;;;;;;;6288745;28;20029;-72
2023/12/04 10:44:23;;;;;;;0.20;0.20;;;;;;;;;;6291813;28;20024;-80
2023/12/04 10:47:23;;;;;;;0.20;0.20;;;;;;;;;;6293902;28;20075;-81
2023/12/04 10:50:24;;;;;;;0.20;0.20;;;;;;;;;;6294679;28;20147;-80
2023/12/04 10:53:24;;;;;;;0.20;0.20;;;;;;;;;;6282934;28;20028;-80
2023/12/04 10:56:37;;;;;;;0.20;0.20;;;;;;;;;;6294417;28;20031;-80
2023/12/04 10:59:38;;;;;;;0.20;0.20;;;;;;;;;;6291208;28;20036;-81
2023/12/04 11:02:46;;;;;;;0.10;0.10;;;;;;;;;;6301005;28;20017;-82
2023/12/04 11:05:49;;;;;;;0.20;0.20;;;;;;;;;;6295398;28;20024;-84
2023/12/04 11:08:52;;;;;;;0.20;0.20;;;;;;;;;;6296139;28;20487;-84
2023/12/04 11:11:56;;;;;;;0.20;0.20;;;;;;;;;;6292617;28;20530;-89
2023/12/04 11:14:59;;;;;;;0.20;0.20;;;;;;;;;;6298653;28;20470;-87
2023/12/04 11:18:01;;;;;;;0.20;0.20;;;;;;;;;;6294264;28;20092;-87
2023/12/04 11:21:07;;;;;;;0.20;0.20;;;;;;;;;;6277628;28;20497;-86
2023/12/04 11:24:08;;;;;;;0.20;0.20;;;;;;;;;;6303312;28;20394;-86
2023/12/04 11:27:08;;;;;;;0.20;0.20;;;;;;;;;;6288770;28;20025;-86
2023/12/04 11:30:11;;;;;;;0.20;0.20;;;;;;;;;;6298670;28;20039;-85
2023/12/04 11:33:12;;;;;;;0.20;0.20;;;;;;;;;;6290857;28;20020;-85
2023/12/04 11:36:12;;;;;;;0.20;0.20;;;;;;;;;;6296928;28;20045;-84
2023/12/04 11:39:12;;;;;;;0.20;0.20;;;;;;;;;;6283591;28;20090;-85
2023/12/04 11:42:13;;;;;;;0.20;0.20;;;;;;;;;;6273321;28;20017;-84
2023/12/04 11:45:20;;;;;;;0.20;0.20;;;;;;;;;;6298062;28;20020;-83
2023/12/04 11:48:24;;;;;;;0.20;0.20;;;;;;;;;;6295620;28;20073;-82
2023/12/04 11:51:42;;;;;;;0.20;0.20;;;;;;;;;;6277149;28;20035;-82
2023/12/04 11:54:57;;;;;;;0.20;0.20;;;;;;;;;;6299533;28;20059;-83
2023/12/04 11:57:58;;;;;;;0.20;0.20;;;;;;;;;;6292520;28;20031;-83
2023/12/04 12:01:00;;;;;;;0.20;0.20;;;;;;;;;;6291325;28;20008;-82
2023/12/04 12:04:00;;;;;;;0.20;0.20;;;;;;;;;;6281189;28;20040;-84
2023/12/04 12:07:02;;;;;;;0.20;0.20;;;;;;;;;;6292186;28;20517;-84
2023/12/04 12:10:02;;;;;;;0.20;0.20;;;;;;;;;;6292501;28;20516;-83
2023/12/04 12:13:03;;;;;;;0.20;0.20;;;;;;;;;;6292622;28;20028;-83
2023/12/04 12:16:04;;;;;;;0.20;0.20;;;;;;;;;;6292136;28;20023;-83
2023/12/04 12:19:04;;;;;;;0.20;0.20;;;;;;;;;;6292281;28;20027;-86
2023/12/04 12:22:04;;;;;;;0.20;0.20;;;;;;;;;;6291913;28;20372;-86
2023/12/04 12:25:06;;;;;;;0.20;0.20;;;;;;;;;;6292455;28;20020;-86
2023/12/04 12:28:06;;;;;;;0.20;0.20;;;;;;;;;;6291695;28;20081;-86
2023/12/04 12:31:07;;;;;;;0.20;0.20;;;;;;;;;;6289375;28;20482;-84
2023/12/04 12:34:07;;;;;;;0.20;0.20;;;;;;;;;;6290039;28;20497;-85
2023/12/04 12:37:08;;;;;;;0.20;0.20;;;;;;;;;;6296212;28;20020;-84
2023/12/04 12:40:09;;;;;;;0.20;0.20;;;;;;;;;;6302787;28;20017;-85
2023/12/04 12:43:09;;;;;;;0.20;0.20;;;;;;;;;;6289457;28;20017;-86
2023/12/04 12:46:10;;;;;;;0.20;0.20;;;;;;;;;;6273752;28;20569;-83
2023/12/04 12:49:13;;;;;;;0.20;0.20;;;;;;;;;;6292067;28;20526;-84
2023/12/04 12:52:14;;;;;;;0.20;0.20;;;;;;;;;;6292427;28;20103;-84
2023/12/04 12:55:22;;;;;;;0.20;0.20;;;;;;;;;;6294307;28;20023;-83
2023/12/04 12:58:22;;;;;;;0.20;0.20;;;;;;;;;;6279711;28;20021;-83
2023/12/04 13:01:25;;;;;;;0.20;0.20;;;;;;;;;;6274814;28;20502;-83
2023/12/04 13:04:25;;;;;;;0.20;0.20;;;;;;;;;;6292106;28;20045;-82
2023/12/04 13:07:25;;;;;;;0.20;0.20;;;;;;;;;;6292017;28;20032;-83
2023/12/04 13:10:26;;;;;;;0.20;0.20;;;;;;;;;;6290443;28;20601;-84
2023/12/04 13:13:27;;;;;;;0.20;0.20;;;;;;;;;;6291767;28;20552;-77
2023/12/04 13:16:27;;;;;;;0.20;0.20;;;;;;;;;;6309830;28;20456;-77
2023/12/04 13:19:27;;;;;;;0.20;0.20;;;;;;;;;;6306006;28;20031;-75
2023/12/04 13:22:27;;;;;;;0.27;0.27;;;;;;;;;;6291235;28;20020;-75
2023/12/04 13:25:28;;;;;;;0.20;0.20;;;;;;;;;;6291923;28;20073;-74
2023/12/04 13:28:28;;;;;;;0.30;0.30;;;;;;;;;;6291436;28;20103;-75
2023/12/04 13:31:32;;;;;;;0.30;0.30;;;;;;;;;;6283984;28;20035;-75
2023/12/04 13:34:32;;;;;;;0.30;0.30;;;;;;;;;;6290071;28;20032;-83
2023/12/04 13:37:33;;;;;;;0.20;0.20;;;;;;;;;;6279702;28;20033;-82
2023/12/04 13:40:34;;;;;;;0.30;0.30;;;;;;;;;;6286271;28;20501;-82
2023/12/04 13:43:50;;;;;;;0.30;0.30;;;;;;;;;;6290878;28;20028;-82
2023/12/04 13:46:51;;;;;;;0.30;0.30;;;;;;;;;;6298848;28;20151;-82
2023/12/04 13:49:51;;;;;;;0.30;0.30;;;;;;;;;;6270858;28;20364;-82
2023/12/04 13:52:55;;;;;;;0.30;0.30;;;;;;;;;;6289681;28;20042;-81
2023/12/04 13:59:04;;;;;;;0.30;0.30;;;;;;;;;;6295262;28;20023;-81
2023/12/04 14:02:10;;;;;;;0.28;0.28;;;;;;;;;;6293181;28;20091;-81
2023/12/04 14:05:15;;;;;;;0.30;0.30;;;;;;;;;;6289677;28;20103;-81
2023/12/04 14:08:15;;;;;;;0.30;0.30;;;;;;;;;;6295302;28;20102;-82
2023/12/04 14:11:16;;;;;;;0.30;0.30;;;;;;;;;;6280825;28;20013;-81
2023/12/04 14:14:16;;;;;;;0.30;0.30;;;;;;;;;;6298859;28;20530;-81
2023/12/04 14:17:16;;;;;;;0.30;0.30;;;;;;;;;;6297999;28;20067;-81
2023/12/04 14:20:18;;;;;;;0.20;0.20;;;;;;;;;;6296554;28;20096;-81
2023/12/04 14:23:18;;;;;;;0.30;0.30;;;;;;;;;;6290927;28;20024;-81
2023/12/04 14:26:19;;;;;;;0.30;0.30;;;;;;;;;;6292544;28;20024;-81
2023/12/04 14:29:19;;;;;;;0.30;0.30;;;;;;;;;;6289405;28;20028;-81
2023/12/04 14:32:20;;;;;;;0.30;0.30;;;;;;;;;;6292253;28;20012;-81
2023/12/04 14:35:20;;;;;;;0.30;0.30;;;;;;;;;;6300263;28;20016;-81
2023/12/04 14:38:20;;;;;;;0.30;0.30;;;;;;;;;;6290611;28;20008;-81
2023/12/04 14:41:20;;;;;;;0.40;0.40;;;;;;;;;;6293422;28;20071;-76
2023/12/04 14:44:21;;;;;;;0.30;0.30;;;;;;;;;;6291341;28;20016;-80
2023/12/04 14:47:22;;;;;;;0.30;0.30;;;;;;;;;;6292681;28;20013;-80
2023/12/04 14:50:23;;;;;;;0.27;0.27;;;;;;;;;;6301940;28;20359;-80
2023/12/04 14:53:40;;;;;;;0.20;0.20;;;;;;;;;;6279940;28;20994;-79
2023/12/04 15:19:28;;;;;;;0.30;0.30;;;;;;;;;;6298933;28;20027;-76
2023/12/04 15:22:28;;;;;;;0.30;0.30;;;;;;;;;;6291350;28;20035;-77
2023/12/04 15:25:29;;;;;;;0.30;0.30;;;;;;;;;;6303111;28;20063;-76
2023/12/04 15:28:29;;;;;;;0.30;0.30;;;;;;;;;;6274531;28;20029;-76
2023/12/04 15:31:29;;;;;;;0.27;0.27;;;;;;;;;;6273249;28;20381;-76
2023/12/04 15:34:30;;;;;;;0.30;0.30;;;;;;;;;;6295290;28;20036;-77
2023/12/04 15:37:30;;;;;;;0.30;0.30;;;;;;;;;;6280008;28;20027;-76
2023/12/04 15:40:30;;;;;;;0.30;0.30;;;;;;;;;;6294038;28;20039;-76
2023/12/04 15:43:30;;;;;;;0.30;0.30;;;;;;;;;;6297757;28;20024;-78
2023/12/04 15:46:31;;;;;;;0.30;0.30;;;;;;;;;;6272323;28;20025;-78
2023/12/04 15:49:32;;;;;;;0.38;0.38;;;;;;;;;;6297666;28;20075;-78
2023/12/04 15:52:32;;;;;;;0.37;0.37;;;;;;;;;;6282894;28;20324;-78
2023/12/04 15:55:32;;;;;;;0.30;0.30;;;;;;;;;;6280835;28;20116;-78
2023/12/04 15:58:33;;;;;;;0.30;0.30;;;;;;;;;;6287022;28;20092;-78
2023/12/04 16:01:33;;;;;;;0.30;0.30;;;;;;;;;;6284049;28;20112;-78
2023/12/04 16:04:35;;;;;;;0.30;0.30;;;;;;;;;;6279878;28;20513;-78
2023/12/04 16:07:35;;;;;;;;;;;;;;;;;;6287596;28;20028;-79
2023/12/04 16:10:36;;;;;;;0.30;0.30;;;;;;;;;;6291723;28;19959;-79
2023/12/04 16:13:36;;;;;;;0.40;0.40;;;;;;;;;;6289895;28;20107;-74
2023/12/04 16:16:36;;;;;;;0.30;0.30;;;;;;;;;;6289317;28;20052;-74
2023/12/04 16:19:37;;;;;;;0.30;0.30;;;;;;;;;;6289944;28;20059;-75
2023/12/04 16:22:39;;;;;;;0.30;0.30;;;;;;;;;;6277899;28;20020;-74
2023/12/04 16:25:39;;;;;;;0.30;0.30;;;;;;;;;;6291002;28;20042;-74
2023/12/04 16:28:39;;;;;;;0.30;0.30;;;;;;;;;;6303266;28;20020;-73
2023/12/04 16:31:40;;;;;;;0.30;0.30;;;;;;;;;;6278013;28;20021;-73
2023/12/04 16:34:41;;;;;;;0.30;0.30;;;;;;;;;;6276956;28;20034;-74
2023/12/04 16:37:41;;;;;;;0.30;0.30;;;;;;;;;;6287749;28;20020;-74
2023/12/04 16:40:41;;;;;;;0.30;0.30;;;;;;;;;;6288196;28;20013;-73
2023/12/04 16:43:41;;;;;;;0.30;0.30;;;;;;;;;;6290400;28;20036;-73
2023/12/04 16:46:42;;;;;;;0.30;0.30;;;;;;;;;;6287642;28;20459;-73
2023/12/04 16:49:43;;;;;;;0.40;0.40;;;;;;;;;;6294812;28;20020;-73
2023/12/04 16:52:43;;;;;;;0.30;0.30;;;;;;;;;;6281666;28;20025;-82
2023/12/04 16:55:43;;;;;;;0.30;0.30;;;;;;;;;;6284227;28;20027;-82
2023/12/04 16:58:44;;;;;;;0.30;0.30;;;;;;;;;;6289986;28;20108;-80
2023/12/04 17:01:44;;;;;;;0.30;0.30;;;;;;;;;;6290335;28;20025;-80
2023/12/04 17:04:44;;;;;;;0.30;0.30;;;;;;;;;;6295161;28;20552;-81
2023/12/04 17:07:45;;;;;;;0.30;0.30;;;;;;;;;;6291550;28;20067;-81
2023/12/04 17:10:47;;;;;;;0.30;0.30;;;;;;;;;;6277779;28;20808;-81
2023/12/04 17:13:47;;;;;;;0.30;0.30;;;;;;;;;;6288953;28;20487;-82
2023/12/04 17:16:48;;;;;;;0.30;0.30;;;;;;;;;;6294869;28;20091;-82
2023/12/04 17:19:48;;;;;;;0.30;0.30;;;;;;;;;;6279394;28;20493;-82
2023/12/04 17:22:49;;;;;;;0.20;0.20;;;;;;;;;;6279981;28;20028;-82
2023/12/04 17:25:50;;;;;;;0.20;0.20;;;;;;;;;;6295204;28;20072;-82
2023/12/04 17:28:50;;;;;;;0.30;0.30;;;;;;;;;;6276628;28;20021;-82
2023/12/04 17:31:52;;;;;;;0.30;0.30;;;;;;;;;;6282790;28;20490;-82
2023/12/04 17:34:52;;;;;;;0.30;0.30;;;;;;;;;;6296912;28;20024;-83
2023/12/04 17:37:52;;;;;;;0.30;0.30;;;;;;;;;;6298596;28;20020;-83
2023/12/04 17:40:53;;;;;;;0.30;0.30;;;;;;;;;;6284508;28;20020;-83
2023/12/04 17:43:53;;;;;;;0.30;0.30;;;;;;;;;;6307293;28;20028;-83
2023/12/04 17:46:54;;;;;;;0.30;0.30;;;;;;;;;;6296181;28;20070;-83
2023/12/04 17:49:56;;;;;;;0.30;0.30;;;;;;;;;;6294877;28;20032;-83
2023/12/04 17:52:56;;;;;;;0.30;0.30;;;;;;;;;;6305971;28;20581;-83
2023/12/04 17:55:56;;;;;;;0.30;0.30;;;;;;;;;;6301134;28;20032;-82
2023/12/04 17:58:57;;;;;;;0.30;0.30;;;;;;;;;;6310129;28;20020;-83
2023/12/04 18:01:58;;;;;;;0.30;0.30;;;;;;;;;;6301063;28;20099;-83
2023/12/04 18:04:58;;;;;;;0.30;0.30;;;;;;;;;;6294763;28;20049;-83
2023/12/04 18:07:59;;;;;;;0.30;0.30;;;;;;;;;;6295130;28;20020;-83
2023/12/04 18:11:00;;;;;;;0.30;0.30;;;;;;;;;;6292612;28;20016;-83
2023/12/04 18:14:00;;;;;;;0.30;0.30;;;;;;;;;;6294707;28;20506;-73
2023/12/04 18:17:00;;;;;;;0.30;0.30;;;;;;;;;;6304825;28;20023;-72
2023/12/04 18:20:00;;;;;;;0.30;0.30;;;;;;;;;;6293931;28;20107;-72
2023/12/04 18:23:01;;;;;;;0.30;0.30;;;;;;;;;;6294233;28;20016;-72
2023/12/04 18:26:01;;;;;;;0.37;0.37;;;;;;;;;;6299474;28;20067;-72
2023/12/04 18:29:01;;;;;;;0.30;0.30;;;;;;;;;;6296973;28;20025;-72